Time;durP1;ratioP1;P1;durP2;ratioP2;P2;SDS_P1;SDS_P2;PMS_P1;PMS_P2;Temp;Humidity;BMP_temperature;BMP_pressure;BME280_temperature;BME280_humidity;BME280_pressure;Samples;Min_cycle;Max_cycle;Signal;HPM_P1;HPM_P2
2023/01/07 00:01:39;;;;;;;7.30;3.90;;;;;;;-128.00;-1.00;-1.00;101261;1301;1004297;-36
2023/01/07 00:04:05;;;;;;;7.20;4.50;;;;;;;-128.00;-1.00;-1.00;101451;1304;1003567;-35
2023/01/07 00:06:33;;;;;;;8.90;5.10;;;;;;;-128.00;-1.00;-1.00;101251;1301;1002743;-35
2023/01/07 00:08:59;;;;;;;19.30;9.60;;;;;;;-128.00;-1.00;-1.00;101228;1304;1003146;-32
2023/01/07 00:11:35;;;;;;;23.60;8.30;;;;;;;-128.00;-1.00;-1.00;101425;1304;1004438;-33
2023/01/07 00:14:03;;;;;;;20.20;8.50;;;;;;;-128.00;-1.00;-1.00;101267;1304;1003025;-36
2023/01/07 00:16:30;;;;;;;9.20;4.80;;;;;;;-128.00;-1.00;-1.00;101311;1304;1003325;-33
2023/01/07 00:18:57;;;;;;;8.90;4.90;;;;;;;-128.00;-1.00;-1.00;101321;1304;1003404;-33
2023/01/07 00:21:23;;;;;;;6.70;4.00;;;;;;;-128.00;-1.00;-1.00;101304;1301;1003212;-30
2023/01/07 00:23:52;;;;;;;8.40;3.90;;;;;;;-128.00;-1.00;-1.00;101384;1304;1004206;-31
2023/01/07 00:26:19;;;;;;;7.40;3.30;;;;;;;-128.00;-1.00;-1.00;101250;1304;1003004;-35
2023/01/07 00:28:46;;;;;;;7.10;4.40;;;;;;;-128.00;-1.00;-1.00;101216;1304;1003364;-35
2023/01/07 00:31:14;;;;;;;25.60;9.10;;;;;;;-128.00;-1.00;-1.00;101286;1304;1004008;-31
2023/01/07 00:33:48;;;;;;;10.30;5.50;;;;;;;-128.00;-1.00;-1.00;101211;1301;1002903;-35
2023/01/07 00:36:14;;;;;;;12.70;7.60;;;;;;;-128.00;-1.00;-1.00;101437;1304;1003611;-35
2023/01/07 00:38:39;;;;;;;5.90;4.10;;;;;;;-128.00;-1.00;-1.00;101327;1304;1003884;-36
2023/01/07 00:41:05;;;;;;;4.60;3.50;;;;;;;-128.00;-1.00;-1.00;101435;1304;1003291;-35
2023/01/07 00:43:31;;;;;;;9.30;5.60;;;;;;;-128.00;-1.00;-1.00;101204;1304;1003838;-32
2023/01/07 00:45:57;;;;;;;6.80;5.00;;;;;;;-128.00;-1.00;-1.00;101259;1304;1003191;-31
2023/01/07 00:48:23;;;;;;;6.00;4.30;;;;;;;-128.00;-1.00;-1.00;101218;1304;1004523;-32
2023/01/07 00:50:50;;;;;;;8.40;4.90;;;;;;;-128.00;-1.00;-1.00;101206;1304;1004374;-35
2023/01/07 00:53:16;;;;;;;7.40;3.70;;;;;;;-128.00;-1.00;-1.00;101141;1304;1003388;-31
2023/01/07 00:55:42;;;;;;;11.00;4.40;;;;;;;-128.00;-1.00;-1.00;101246;1304;1003677;-32
2023/01/07 00:58:21;;;;;;;6.10;4.10;;;;;;;-128.00;-1.00;-1.00;101248;1304;1003061;-36
2023/01/07 01:00:47;;;;;;;6.50;4.20;;;;;;;-128.00;-1.00;-1.00;101204;1304;1003056;-37
2023/01/07 01:03:13;;;;;;;4.90;3.50;;;;;;;-128.00;-1.00;-1.00;101261;1304;1003259;-30
2023/01/07 01:05:39;;;;;;;7.20;2.00;;;;;;;-128.00;-1.00;-1.00;101138;1304;1003073;-36
2023/01/07 01:08:05;;;;;;;6.40;3.60;;;;;;;-128.00;-1.00;-1.00;101158;1304;1002953;-36
2023/01/07 01:10:31;;;;;;;8.30;3.50;;;;;;;-128.00;-1.00;-1.00;101220;1304;1003721;-32
2023/01/07 01:12:56;;;;;;;6.00;4.20;;;;;;;-128.00;-1.00;-1.00;101209;1304;1003022;-32
2023/01/07 01:15:22;;;;;;;13.90;4.20;;;;;;;-128.00;-1.00;-1.00;101088;1304;1003996;-34
2023/01/07 01:17:49;;;;;;;7.40;4.80;;;;;;;-128.00;-1.00;-1.00;101125;1304;1003692;-33
2023/01/07 01:20:15;;;;;;;7.10;4.50;;;;;;;-128.00;-1.00;-1.00;101128;1304;1002995;-35
2023/01/07 01:22:41;;;;;;;8.60;4.90;;;;;;;-128.00;-1.00;-1.00;101295;1304;1002417;-32
2023/01/07 01:25:07;;;;;;;8.80;5.10;;;;;;;-128.00;-1.00;-1.00;101171;1304;1003733;-35
2023/01/07 01:27:33;;;;;;;10.40;6.70;;;;;;;-128.00;-1.00;-1.00;101084;1304;1004582;-31
2023/01/07 01:29:59;;;;;;;10.70;4.90;;;;;;;-128.00;-1.00;-1.00;101309;1304;1004337;-31
2023/01/07 01:32:25;;;;;;;7.40;5.40;;;;;;;-128.00;-1.00;-1.00;101150;1284;1004184;-32
2023/01/07 01:34:51;;;;;;;11.50;5.90;;;;;;;-128.00;-1.00;-1.00;101114;1304;1003870;-32
2023/01/07 01:37:16;;;;;;;8.30;5.70;;;;;;;-128.00;-1.00;-1.00;101330;1304;1002981;-36
2023/01/07 01:39:42;;;;;;;8.00;4.90;;;;;;;-128.00;-1.00;-1.00;101178;1304;1003631;-32
2023/01/07 01:42:12;;;;;;;7.40;5.10;;;;;;;-128.00;-1.00;-1.00;101202;1304;1003167;-36
2023/01/07 01:44:52;;;;;;;9.90;4.40;;;;;;;-128.00;-1.00;-1.00;101052;1304;1003347;-35
2023/01/07 01:47:22;;;;;;;6.60;4.90;;;;;;;-128.00;-1.00;-1.00;101224;1304;1003283;-36
2023/01/07 01:49:53;;;;;;;7.40;5.10;;;;;;;-128.00;-1.00;-1.00;101163;1298;1003145;-31
2023/01/07 01:52:20;;;;;;;13.20;5.70;;;;;;;-128.00;-1.00;-1.00;101125;1304;1003868;-35
2023/01/07 01:54:57;;;;;;;9.00;6.60;;;;;;;-128.00;-1.00;-1.00;101195;1304;1003511;-32
2023/01/07 01:57:23;;;;;;;7.20;5.80;;;;;;;-128.00;-1.00;-1.00;101148;1304;1003462;-36
2023/01/07 01:59:49;;;;;;;7.90;4.10;;;;;;;-128.00;-1.00;-1.00;101186;1304;1002792;-36
2023/01/07 02:02:22;;;;;;;7.80;4.10;;;;;;;-128.00;-1.00;-1.00;101119;1304;1003654;-31
2023/01/07 02:04:48;;;;;;;9.00;5.40;;;;;;;-128.00;-1.00;-1.00;101246;1304;1004506;-36
2023/01/07 02:07:15;;;;;;;4.60;3.40;;;;;;;-128.00;-1.00;-1.00;101149;1304;1003528;-36
2023/01/07 02:09:41;;;;;;;15.00;5.10;;;;;;;-128.00;-1.00;-1.00;101184;1304;1003755;-33
2023/01/07 02:12:27;;;;;;;8.30;5.10;;;;;;;-128.00;-1.00;-1.00;101104;1304;1004872;-37
2023/01/07 02:15:09;;;;;;;7.00;4.00;;;;;;;-128.00;-1.00;-1.00;101226;1304;1002964;-36
2023/01/07 02:17:54;;;;;;;9.10;6.20;;;;;;;-128.00;-1.00;-1.00;101163;1304;1003749;-34
2023/01/07 02:20:29;;;;;;;8.80;4.30;;;;;;;-128.00;-1.00;-1.00;101159;1304;1003052;-29
2023/01/07 02:23:13;;;;;;;10.30;5.00;;;;;;;-128.00;-1.00;-1.00;101282;1302;1002975;-30
2023/01/07 02:25:46;;;;;;;;;;;;;;;-128.00;-1.00;-1.00;101136;1298;1002794;-30
2023/01/07 02:28:31;;;;;;;8.10;4.50;;;;;;;-128.00;-1.00;-1.00;101211;1304;1004655;-33
2023/01/07 02:31:28;;;;;;;9.70;5.80;;;;;;;-128.00;-1.00;-1.00;101244;1304;1002958;-30
2023/01/07 02:34:08;;;;;;;5.80;3.90;;;;;;;-128.00;-1.00;-1.00;101225;1304;1003482;-35
2023/01/07 02:36:46;;;;;;;13.10;7.00;;;;;;;-128.00;-1.00;-1.00;101189;1304;1004639;-34
2023/01/07 02:39:18;;;;;;;4.80;3.30;;;;;;;-128.00;-1.00;-1.00;101250;1304;1003411;-30
2023/01/07 02:41:54;;;;;;;5.10;4.20;;;;;;;-128.00;-1.00;-1.00;101200;1301;1003004;-30
2023/01/07 02:44:40;;;;;;;8.60;5.00;;;;;;;-128.00;-1.00;-1.00;101204;1304;1003208;-35
2023/01/07 02:47:21;;;;;;;8.00;4.50;;;;;;;-128.00;-1.00;-1.00;101141;1304;1002573;-35
2023/01/07 02:49:48;;;;;;;11.20;5.60;;;;;;;-128.00;-1.00;-1.00;101093;1304;1004621;-35
2023/01/07 02:52:30;;;;;;;6.90;4.50;;;;;;;-128.00;-1.00;-1.00;101164;1304;1003901;-32
2023/01/07 02:55:07;;;;;;;6.10;4.20;;;;;;;-128.00;-1.00;-1.00;101061;1304;1003981;-34
2023/01/07 02:58:00;;;;;;;9.20;5.20;;;;;;;-128.00;-1.00;-1.00;101189;1304;1003908;-34
2023/01/07 03:00:42;;;;;;;6.50;4.10;;;;;;;-128.00;-1.00;-1.00;101108;1304;1003599;-34
2023/01/07 03:03:30;;;;;;;5.70;5.00;;;;;;;-128.00;-1.00;-1.00;101272;1304;1003311;-35
2023/01/07 03:06:08;;;;;;;6.70;4.30;;;;;;;-128.00;-1.00;-1.00;101161;1304;1003340;-35
2023/01/07 03:08:48;;;;;;;6.20;4.10;;;;;;;-128.00;-1.00;-1.00;101190;1304;1004165;-36
2023/01/07 03:11:14;;;;;;;8.00;4.80;;;;;;;-128.00;-1.00;-1.00;101372;1298;1002529;-35
2023/01/07 03:13:59;;;;;;;7.60;4.60;;;;;;;-128.00;-1.00;-1.00;101205;1304;1002464;-36
2023/01/07 03:16:33;;;;;;;7.30;4.50;;;;;;;-128.00;-1.00;-1.00;101294;1304;1003446;-35
2023/01/07 03:19:08;;;;;;;7.70;5.70;;;;;;;-128.00;-1.00;-1.00;101254;1304;1003345;-35
2023/01/07 03:21:34;;;;;;;8.30;4.90;;;;;;;-128.00;-1.00;-1.00;101171;1304;1004015;-35
2023/01/07 03:24:01;;;;;;;5.50;4.10;;;;;;;-128.00;-1.00;-1.00;101333;1304;1003696;-35
2023/01/07 03:26:32;;;;;;;8.80;5.70;;;;;;;-128.00;-1.00;-1.00;101114;1304;1002579;-32
2023/01/07 03:28:59;;;;;;;5.40;3.80;;;;;;;-128.00;-1.00;-1.00;101231;1304;1003552;-31
2023/01/07 03:31:24;;;;;;;11.60;5.30;;;;;;;-128.00;-1.00;-1.00;101172;1304;1005013;-36
2023/01/07 03:34:04;;;;;;;7.00;5.80;;;;;;;-128.00;-1.00;-1.00;101103;1304;1003186;-32
2023/01/07 03:36:33;;;;;;;6.40;3.90;;;;;;;-128.00;-1.00;-1.00;101159;1298;1003266;-40
2023/01/07 03:38:58;;;;;;;6.50;4.80;;;;;;;-128.00;-1.00;-1.00;101315;1304;1004990;-36
2023/01/07 03:44:02;;;;;;;6.30;3.30;;;;;;;-128.00;-1.00;-1.00;101158;1304;1002914;-30
2023/01/07 03:46:28;;;;;;;6.10;4.80;;;;;;;-128.00;-1.00;-1.00;101167;1304;1002984;-30
2023/01/07 03:48:54;;;;;;;10.90;5.60;;;;;;;-128.00;-1.00;-1.00;101303;1304;1003862;-30
2023/01/07 03:51:19;;;;;;;7.50;3.90;;;;;;;-128.00;-1.00;-1.00;101270;1304;1003638;-36
2023/01/07 03:53:45;;;;;;;9.00;6.20;;;;;;;-128.00;-1.00;-1.00;101184;1304;1003642;-32
2023/01/07 03:56:11;;;;;;;10.40;4.60;;;;;;;-128.00;-1.00;-1.00;101251;1304;1002937;-31
2023/01/07 03:58:37;;;;;;;6.80;4.40;;;;;;;-128.00;-1.00;-1.00;101258;1304;1003867;-31
2023/01/07 04:01:02;;;;;;;7.30;4.40;;;;;;;-128.00;-1.00;-1.00;101152;1304;1003393;-35
2023/01/07 04:03:28;;;;;;;8.80;5.10;;;;;;;-128.00;-1.00;-1.00;101290;1304;1004172;-35
2023/01/07 04:05:54;;;;;;;5.40;4.60;;;;;;;-128.00;-1.00;-1.00;101178;1304;1004273;-31
2023/01/07 04:08:20;;;;;;;6.90;4.00;;;;;;;-128.00;-1.00;-1.00;101168;1304;1005181;-34
2023/01/07 04:10:46;;;;;;;6.20;4.50;;;;;;;-128.00;-1.00;-1.00;101226;1304;1004912;-31
2023/01/07 04:13:12;;;;;;;6.80;4.70;;;;;;;-128.00;-1.00;-1.00;101147;1304;1002776;-31
2023/01/07 04:15:37;;;;;;;11.20;6.30;;;;;;;-128.00;-1.00;-1.00;101236;1304;1004633;-36
2023/01/07 04:18:04;;;;;;;4.70;3.60;;;;;;;-128.00;-1.00;-1.00;101167;1304;1003121;-36
2023/01/07 04:20:31;;;;;;;6.40;4.20;;;;;;;-128.00;-1.00;-1.00;101321;1304;1003318;-35
2023/01/07 04:22:56;;;;;;;6.40;4.10;;;;;;;-128.00;-1.00;-1.00;101205;1304;1003324;-31
2023/01/07 04:25:22;;;;;;;7.10;4.90;;;;;;;-128.00;-1.00;-1.00;101240;1304;1003630;-32
2023/01/07 04:27:48;;;;;;;5.70;4.00;;;;;;;-128.00;-1.00;-1.00;101136;1304;1003868;-35
2023/01/07 04:30:13;;;;;;;7.60;5.30;;;;;;;-128.00;-1.00;-1.00;101328;1304;1004314;-35
2023/01/07 04:32:39;;;;;;;8.40;5.60;;;;;;;-128.00;-1.00;-1.00;101275;1304;1004210;-35
2023/01/07 04:35:05;;;;;;;13.30;8.80;;;;;;;-128.00;-1.00;-1.00;101106;1304;1004827;-35
2023/01/07 04:37:31;;;;;;;13.50;6.50;;;;;;;-128.00;-1.00;-1.00;101280;1304;1003023;-35
2023/01/07 05:15:20;;;;;;;21.30;12.10;;;;;;;-101.73;19.20;19981.75;101569;1304;1545744;-31
2023/01/07 05:17:46;;;;;;;17.40;7.40;;;;;;;-128.00;-1.00;-1.00;100617;1304;1005189;-35
2023/01/07 05:20:12;;;;;;;23.10;9.80;;;;;;;-128.00;-1.00;-1.00;101003;1305;1004781;-35
2023/01/07 05:22:38;;;;;;;20.10;7.50;;;;;;;-128.00;-1.00;-1.00;101037;1305;1004291;-31
2023/01/07 05:25:04;;;;;;;9.60;6.90;;;;;;;-128.00;-1.00;-1.00;100993;1305;1004464;-31
2023/01/07 05:27:30;;;;;;;11.60;7.20;;;;;;;-128.00;-1.00;-1.00;101030;1305;1003660;-32
2023/01/07 05:29:56;;;;;;;7.40;6.00;;;;;;;-128.00;-1.00;-1.00;100969;1305;1003894;-36
2023/01/07 05:32:21;;;;;;;18.10;9.10;;;;;;;-128.00;-1.00;-1.00;101191;1305;1004459;-35
2023/01/07 05:34:47;;;;;;;13.70;7.60;;;;;;;-128.00;-1.00;-1.00;101013;1305;1004134;-31
2023/01/07 05:37:13;;;;;;;10.60;5.80;;;;;;;-128.00;-1.00;-1.00;100921;1305;1004880;-31
2023/01/07 05:39:38;;;;;;;10.40;6.70;;;;;;;-128.00;-1.00;-1.00;101034;1305;1003869;-32
2023/01/07 05:42:04;;;;;;;9.20;4.90;;;;;;;-128.00;-1.00;-1.00;101125;1305;1004635;-36
2023/01/07 05:44:30;;;;;;;16.40;6.50;;;;;;;-128.00;-1.00;-1.00;100949;1305;1005170;-31
2023/01/07 05:46:56;;;;;;;8.90;4.30;;;;;;;-128.00;-1.00;-1.00;101038;1305;1004281;-36
2023/01/07 05:49:21;;;;;;;8.10;5.20;;;;;;;-128.00;-1.00;-1.00;100916;1305;1004486;-36
2023/01/07 05:51:47;;;;;;;11.40;6.10;;;;;;;-128.00;-1.00;-1.00;100836;1305;1004641;-35
2023/01/07 05:54:13;;;;;;;10.90;4.90;;;;;;;-128.00;-1.00;-1.00;100944;1305;1005557;-34
2023/01/07 05:56:38;;;;;;;15.80;10.30;;;;;;;-128.00;-1.00;-1.00;100903;1305;1004487;-31
2023/01/07 05:59:04;;;;;;;12.10;7.80;;;;;;;-128.00;-1.00;-1.00;101034;1305;1003891;-31
2023/01/07 06:01:30;;;;;;;20.50;10.20;;;;;;;-128.00;-1.00;-1.00;101021;1305;1004624;-31
2023/01/07 06:03:56;;;;;;;19.90;11.30;;;;;;;-128.00;-1.00;-1.00;100933;1305;1004357;-34
2023/01/07 06:06:21;;;;;;;31.90;18.00;;;;;;;-128.00;-1.00;-1.00;101121;1305;1004577;-35
2023/01/07 06:08:47;;;;;;;27.90;17.10;;;;;;;-128.00;-1.00;-1.00;101031;1305;1005110;-33
2023/01/07 06:11:13;;;;;;;19.90;12.70;;;;;;;-128.00;-1.00;-1.00;100869;1305;1004747;-32
2023/01/07 06:13:39;;;;;;;24.00;15.60;;;;;;;-128.00;-1.00;-1.00;101026;1305;1004471;-31
2023/01/07 06:16:07;;;;;;;26.40;12.90;;;;;;;-128.00;-1.00;-1.00;100942;1305;1003928;-36
2023/01/07 06:18:34;;;;;;;16.80;10.30;;;;;;;-128.00;-1.00;-1.00;101031;1305;1004647;-35
2023/01/07 06:20:59;;;;;;;13.60;8.60;;;;;;;-128.00;-1.00;-1.00;100956;1305;1005429;-35
2023/01/07 06:23:25;;;;;;;19.70;8.40;;;;;;;-128.00;-1.00;-1.00;100911;1305;1005529;-36
2023/01/07 06:25:51;;;;;;;12.70;7.60;;;;;;;-128.00;-1.00;-1.00;100957;1305;1004640;-36
2023/01/07 06:28:17;;;;;;;13.30;7.60;;;;;;;-128.00;-1.00;-1.00;100968;1305;1003676;-35
2023/01/07 06:30:46;;;;;;;13.50;7.30;;;;;;;-128.00;-1.00;-1.00;101021;1305;1004367;-36
2023/01/07 06:33:12;;;;;;;15.40;9.10;;;;;;;-128.00;-1.00;-1.00;100993;1305;1004636;-31
2023/01/07 06:35:38;;;;;;;17.30;9.00;;;;;;;-128.00;-1.00;-1.00;100980;1305;1004481;-34
2023/01/07 06:38:04;;;;;;;8.90;5.70;;;;;;;-128.00;-1.00;-1.00;101005;1305;1004309;-32
2023/01/07 06:40:29;;;;;;;16.40;8.90;;;;;;;-128.00;-1.00;-1.00;100876;1305;1004196;-34
2023/01/07 06:42:55;;;;;;;11.40;7.80;;;;;;;-128.00;-1.00;-1.00;100967;1305;1004872;-30
2023/01/07 06:45:21;;;;;;;16.50;8.80;;;;;;;-128.00;-1.00;-1.00;100911;1305;1005077;-34
2023/01/07 06:47:47;;;;;;;15.50;7.80;;;;;;;-128.00;-1.00;-1.00;100877;1305;1004973;-35
2023/01/07 06:50:13;;;;;;;13.50;8.70;;;;;;;-128.00;-1.00;-1.00;101048;1283;1005270;-31
2023/01/07 06:52:39;;;;;;;10.70;5.30;;;;;;;-128.00;-1.00;-1.00;101008;1305;1004514;-31
2023/01/07 06:55:05;;;;;;;4.70;3.40;;;;;;;-128.00;-1.00;-1.00;101032;1305;1004348;-31
2023/01/07 06:57:30;;;;;;;8.10;5.90;;;;;;;-128.00;-1.00;-1.00;100991;1305;1005546;-36
2023/01/07 06:59:56;;;;;;;11.60;7.30;;;;;;;-128.00;-1.00;-1.00;100942;1305;1004981;-35
2023/01/07 07:02:24;;;;;;;7.20;5.30;;;;;;;-128.00;-1.00;-1.00;100868;1305;1004913;-36
2023/01/07 07:04:50;;;;;;;12.00;7.30;;;;;;;-128.00;-1.00;-1.00;100971;1305;1004805;-34
2023/01/07 07:07:15;;;;;;;10.80;8.40;;;;;;;-128.00;-1.00;-1.00;101066;1298;1003818;-31
2023/01/07 07:09:41;;;;;;;10.40;6.40;;;;;;;-128.00;-1.00;-1.00;101015;1305;1004586;-30
2023/01/07 07:12:08;;;;;;;15.90;8.30;;;;;;;-128.00;-1.00;-1.00;101051;1305;1004678;-31
2023/01/07 07:14:34;;;;;;;12.30;7.50;;;;;;;-128.00;-1.00;-1.00;100942;1305;1004755;-30
2023/01/07 07:16:59;;;;;;;14.30;8.50;;;;;;;-128.00;-1.00;-1.00;100579;1305;1004291;-34
2023/01/07 07:19:26;;;;;;;11.80;6.90;;;;;;;-128.00;-1.00;-1.00;101075;1305;1004328;-34
2023/01/07 07:21:52;;;;;;;9.40;5.80;;;;;;;-128.00;-1.00;-1.00;100849;1305;1004510;-34
2023/01/07 07:24:18;;;;;;;15.50;7.70;;;;;;;-128.00;-1.00;-1.00;100723;1305;1004843;-32
2023/01/07 07:26:43;;;;;;;12.90;7.00;;;;;;;-128.00;-1.00;-1.00;101085;1305;1003830;-30
2023/01/07 07:29:09;;;;;;;11.60;7.60;;;;;;;-128.00;-1.00;-1.00;101081;1305;1004369;-35
2023/01/07 07:31:36;;;;;;;24.90;11.50;;;;;;;-128.00;-1.00;-1.00;100877;1305;1004518;-32
2023/01/07 07:34:01;;;;;;;29.60;10.10;;;;;;;-128.00;-1.00;-1.00;100928;1305;1004815;-34
2023/01/07 07:36:27;;;;;;;19.80;10.30;;;;;;;-128.00;-1.00;-1.00;100976;1305;1004408;-40
2023/01/07 07:38:53;;;;;;;14.20;9.30;;;;;;;-128.00;-1.00;-1.00;101030;1305;1004678;-32
2023/01/07 07:41:19;;;;;;;14.40;9.30;;;;;;;-128.00;-1.00;-1.00;100927;1305;1004693;-32
2023/01/07 07:43:45;;;;;;;17.30;8.80;;;;;;;-128.00;-1.00;-1.00;101065;1305;1004642;-35
2023/01/07 07:46:10;;;;;;;17.00;8.80;;;;;;;-128.00;-1.00;-1.00;100999;1305;1004808;-35
2023/01/07 07:48:36;;;;;;;19.10;9.80;;;;;;;-128.00;-1.00;-1.00;100883;1305;1004748;-35
2023/01/07 07:51:02;;;;;;;15.10;9.50;;;;;;;-128.00;-1.00;-1.00;100986;1305;1005119;-35
2023/01/07 07:53:28;;;;;;;25.60;9.90;;;;;;;-128.00;-1.00;-1.00;100884;1305;1004010;-35
2023/01/07 07:55:54;;;;;;;13.80;8.60;;;;;;;-128.00;-1.00;-1.00;100963;1305;1003790;-31
2023/01/07 07:58:19;;;;;;;18.20;10.70;;;;;;;-128.00;-1.00;-1.00;100962;1305;1004715;-31
2023/01/07 08:00:45;;;;;;;17.80;9.50;;;;;;;-128.00;-1.00;-1.00;101057;1305;1004345;-32
2023/01/07 08:03:11;;;;;;;16.40;10.60;;;;;;;-128.00;-1.00;-1.00;100970;1305;1005328;-35
2023/01/07 08:05:41;;;;;;;15.50;8.40;;;;;;;-128.00;-1.00;-1.00;100961;1305;1004064;-29
2023/01/07 08:08:08;;;;;;;17.00;11.00;;;;;;;-128.00;-1.00;-1.00;100958;1305;1004530;-30
2023/01/07 08:10:34;;;;;;;17.60;10.00;;;;;;;-128.00;-1.00;-1.00;101057;1301;1004455;-36
2023/01/07 08:12:59;;;;;;;12.20;7.90;;;;;;;-128.00;-1.00;-1.00;100941;1305;1003554;-36
2023/01/07 08:15:26;;;;;;;9.90;6.70;;;;;;;-128.00;-1.00;-1.00;101081;1305;1004337;-34
2023/01/07 08:18:05;;;;;;;12.80;7.70;;;;;;;-128.00;-1.00;-1.00;100964;1305;1004578;-30
2023/01/07 08:20:32;;;;;;;19.70;11.40;;;;;;;-128.00;-1.00;-1.00;100909;1301;1004001;-30
2023/01/07 08:22:59;;;;;;;13.20;9.30;;;;;;;-128.00;-1.00;-1.00;100931;1305;1005213;-34
2023/01/07 08:25:25;;;;;;;14.40;10.30;;;;;;;-128.00;-1.00;-1.00;100995;1305;1004160;-33
2023/01/07 08:27:53;;;;;;;19.30;12.10;;;;;;;-128.00;-1.00;-1.00;100923;1305;1004448;-34
2023/01/07 08:30:19;;;;;;;23.70;13.70;;;;;;;-128.00;-1.00;-1.00;100933;1305;1004723;-30
2023/01/07 08:32:45;;;;;;;20.30;14.40;;;;;;;-128.00;-1.00;-1.00;100992;1305;1003618;-35
2023/01/07 08:35:11;;;;;;;26.40;16.10;;;;;;;-128.00;-1.00;-1.00;101029;1305;1004549;-32
2023/01/07 08:37:37;;;;;;;27.40;14.50;;;;;;;-128.00;-1.00;-1.00;101009;1305;1004742;-32
2023/01/07 08:40:03;;;;;;;21.80;12.90;;;;;;;-128.00;-1.00;-1.00;100929;1305;1004589;-32
2023/01/07 08:42:29;;;;;;;26.90;14.00;;;;;;;-128.00;-1.00;-1.00;100915;1305;1004798;-36
2023/01/07 08:44:55;;;;;;;21.50;13.30;;;;;;;-128.00;-1.00;-1.00;100986;1305;1004853;-31
2023/01/07 08:47:20;;;;;;;25.10;13.70;;;;;;;-128.00;-1.00;-1.00;101036;1305;1003634;-32
2023/01/07 08:49:47;;;;;;;19.20;10.70;;;;;;;-128.00;-1.00;-1.00;100957;1305;1004206;-36
2023/01/07 08:52:13;;;;;;;14.70;11.00;;;;;;;-128.00;-1.00;-1.00;100944;1305;1004978;-32
2023/01/07 08:54:39;;;;;;;20.40;10.70;;;;;;;-128.00;-1.00;-1.00;100845;1305;1004747;-36
2023/01/07 08:57:05;;;;;;;13.50;8.70;;;;;;;-128.00;-1.00;-1.00;100917;1305;1004411;-32
2023/01/07 08:59:30;;;;;;;12.90;9.70;;;;;;;-128.00;-1.00;-1.00;101034;1305;1004830;-36
2023/01/07 09:01:56;;;;;;;8.50;7.00;;;;;;;-128.00;-1.00;-1.00;100696;1305;1004006;-32
2023/01/07 09:04:22;;;;;;;8.30;5.80;;;;;;;-128.00;-1.00;-1.00;101102;1305;1003796;-32
2023/01/07 09:06:48;;;;;;;9.80;6.40;;;;;;;-128.00;-1.00;-1.00;100853;1305;1004611;-35
2023/01/07 09:09:15;;;;;;;9.70;6.30;;;;;;;-128.00;-1.00;-1.00;100979;1305;1004717;-36
2023/01/07 09:11:41;;;;;;;11.20;6.60;;;;;;;-128.00;-1.00;-1.00;101014;1298;1003971;-31
2023/01/07 09:14:07;;;;;;;8.00;5.00;;;;;;;-128.00;-1.00;-1.00;100954;1305;1004955;-32
2023/01/07 09:16:33;;;;;;;7.70;5.00;;;;;;;-128.00;-1.00;-1.00;101037;1305;1004366;-33
2023/01/07 09:18:59;;;;;;;8.10;6.30;;;;;;;-128.00;-1.00;-1.00;101034;1305;1004354;-32
2023/01/07 09:21:24;;;;;;;6.00;3.40;;;;;;;-128.00;-1.00;-1.00;101001;1305;1004945;-32
2023/01/07 09:23:50;;;;;;;9.10;6.30;;;;;;;-128.00;-1.00;-1.00;101049;1305;1004362;-36
2023/01/07 09:26:16;;;;;;;10.80;5.50;;;;;;;-128.00;-1.00;-1.00;100944;1305;1004942;-34
2023/01/07 09:28:42;;;;;;;10.10;6.10;;;;;;;-128.00;-1.00;-1.00;100987;1305;1004839;-31
2023/01/07 09:31:07;;;;;;;6.00;4.60;;;;;;;-128.00;-1.00;-1.00;100945;1305;1004143;-33
2023/01/07 09:33:33;;;;;;;5.00;4.30;;;;;;;-128.00;-1.00;-1.00;100917;1305;1004473;-34
2023/01/07 09:35:59;;;;;;;12.70;7.00;;;;;;;-128.00;-1.00;-1.00;101013;1305;1004618;-36
2023/01/07 09:38:25;;;;;;;5.60;4.90;;;;;;;-128.00;-1.00;-1.00;100981;1305;1004624;-36
2023/01/07 09:40:51;;;;;;;8.50;6.50;;;;;;;-128.00;-1.00;-1.00;100998;1305;1004644;-37
2023/01/07 09:43:21;;;;;;;13.70;5.40;;;;;;;-128.00;-1.00;-1.00;100987;1305;1004325;-33
2023/01/07 09:45:55;;;;;;;7.30;5.60;;;;;;;-128.00;-1.00;-1.00;100941;1305;1004492;-36
2023/01/07 09:48:26;;;;;;;6.60;4.10;;;;;;;-128.00;-1.00;-1.00;100965;1305;1004328;-33
2023/01/07 09:51:06;;;;;;;7.10;5.30;;;;;;;-128.00;-1.00;-1.00;100891;1305;1004528;-38
2023/01/07 09:53:40;;;;;;;8.40;4.90;;;;;;;-128.00;-1.00;-1.00;101053;1305;1004833;-35
2023/01/07 09:56:07;;;;;;;11.70;8.10;;;;;;;-128.00;-1.00;-1.00;100924;1287;1004324;-31
2023/01/07 09:58:33;;;;;;;9.10;5.40;;;;;;;-128.00;-1.00;-1.00;100939;1305;1004523;-34
2023/01/07 10:01:23;;;;;;;6.80;4.20;;;;;;;-128.00;-1.00;-1.00;100967;1305;1004290;-31
2023/01/07 10:04:01;;;;;;;3.90;3.50;;;;;;;-128.00;-1.00;-1.00;101039;1305;1004683;-31
2023/01/07 10:06:41;;;;;;;6.80;4.30;;;;;;;-128.00;-1.00;-1.00;100986;1305;1005011;-35
2023/01/07 10:09:31;;;;;;;3.90;3.30;;;;;;;-128.00;-1.00;-1.00;100924;1305;1004435;-31
2023/01/07 10:12:14;;;;;;;5.00;4.30;;;;;;;-128.00;-1.00;-1.00;100984;1305;1004446;-31
2023/01/07 10:14:56;;;;;;;9.90;5.30;;;;;;;-128.00;-1.00;-1.00;100913;1305;1004567;-31
2023/01/07 10:17:35;;;;;;;4.70;4.00;;;;;;;-128.00;-1.00;-1.00;100958;1305;1004491;-33
2023/01/07 10:20:19;;;;;;;5.60;4.10;;;;;;;-128.00;-1.00;-1.00;100967;1305;1003923;-33
2023/01/07 10:23:02;;;;;;;8.60;4.50;;;;;;;-128.00;-1.00;-1.00;100992;1305;1004091;-32
2023/01/07 10:25:34;;;;;;;7.00;4.90;;;;;;;-128.00;-1.00;-1.00;100975;1305;1004573;-32
2023/01/07 10:28:06;;;;;;;5.40;3.90;;;;;;;-128.00;-1.00;-1.00;100945;1305;1004457;-32
2023/01/07 10:30:36;;;;;;;5.60;3.70;;;;;;;-128.00;-1.00;-1.00;100947;1305;1003859;-32
2023/01/07 10:33:13;;;;;;;4.30;3.60;;;;;;;-128.00;-1.00;-1.00;100932;1305;1004464;-32
2023/01/07 10:35:40;;;;;;;5.00;3.70;;;;;;;-128.00;-1.00;-1.00;100996;1305;1004294;-32
2023/01/07 10:38:10;;;;;;;6.10;4.50;;;;;;;-128.00;-1.00;-1.00;100947;1305;1004684;-36
2023/01/07 10:40:42;;;;;;;5.90;4.60;;;;;;;-128.00;-1.00;-1.00;100953;1305;1004040;-35
2023/01/07 10:43:23;;;;;;;6.30;4.10;;;;;;;-128.00;-1.00;-1.00;100959;1305;1004423;-32
2023/01/07 10:46:13;;;;;;;6.10;4.20;;;;;;;-128.00;-1.00;-1.00;100946;1305;1004682;-35
2023/01/07 10:48:57;;;;;;;5.80;4.30;;;;;;;-128.00;-1.00;-1.00;101065;1305;1004459;-30
2023/01/07 10:51:35;;;;;;;;;;;;;;;-128.00;-1.00;-1.00;100929;1305;1004798;-30
2023/01/07 10:54:33;;;;;;;2.60;2.40;;;;;;;-128.00;-1.00;-1.00;100882;1305;1005070;-34
2023/01/07 10:57:09;;;;;;;6.40;3.60;;;;;;;-128.00;-1.00;-1.00;100904;1305;1004803;-30
2023/01/07 10:59:34;;;;;;;3.50;3.10;;;;;;;-128.00;-1.00;-1.00;100937;1305;1004720;-30
2023/01/07 11:02:00;;;;;;;4.30;3.50;;;;;;;-128.00;-1.00;-1.00;101024;1305;1005110;-30
2023/01/07 11:45:14;;;;;;;3.20;2.70;;;;;;;-100.73;19.20;19939.40;101514;1304;1545532;-35
2023/01/07 11:47:48;;;;;;;4.80;4.00;;;;;;;-128.00;-1.00;-1.00;100661;1304;1004527;-31
2023/01/07 11:50:21;;;;;;;3.30;2.50;;;;;;;-128.00;-1.00;-1.00;101111;1304;1004480;-32
2023/01/07 11:52:54;;;;;;;;;;;;;;;-128.00;-1.00;-1.00;101056;1300;1004670;-36
2023/01/07 11:55:20;;;;;;;4.20;3.30;;;;;;;-128.00;-1.00;-1.00;100957;1304;1004468;-36
2023/01/07 11:57:52;;;;;;;3.70;3.10;;;;;;;-128.00;-1.00;-1.00;100990;1304;1004118;-30
2023/01/07 12:00:18;;;;;;;3.20;2.70;;;;;;;-128.00;-1.00;-1.00;100978;1300;1003995;-34
2023/01/07 12:02:44;;;;;;;4.20;2.90;;;;;;;-128.00;-1.00;-1.00;100959;1304;1004358;-30
2023/01/07 12:05:21;;;;;;;7.40;3.50;;;;;;;-128.00;-1.00;-1.00;100898;1304;1004083;-34
2023/01/07 12:07:47;;;;;;;4.40;3.20;;;;;;;-128.00;-1.00;-1.00;100922;1302;1004947;-31
2023/01/07 12:10:26;;;;;;;5.50;3.60;;;;;;;-128.00;-1.00;-1.00;100926;1304;1004732;-35
2023/01/07 12:12:51;;;;;;;3.10;2.70;;;;;;;-128.00;-1.00;-1.00;100989;1304;1004667;-31
2023/01/07 12:15:19;;;;;;;4.00;3.10;;;;;;;-128.00;-1.00;-1.00;101072;1304;1004543;-31
2023/01/07 12:17:47;;;;;;;7.30;4.00;;;;;;;-128.00;-1.00;-1.00;101050;1304;1003828;-32
2023/01/07 12:20:35;;;;;;;5.30;3.40;;;;;;;-128.00;-1.00;-1.00;101061;1298;1004824;-33
2023/01/07 12:23:21;;;;;;;6.70;3.30;;;;;;;-128.00;-1.00;-1.00;101083;1304;1004769;-36
2023/01/07 12:26:03;;;;;;;5.60;3.80;;;;;;;-128.00;-1.00;-1.00;100965;1304;1004228;-36
2023/01/07 12:28:45;;;;;;;58.50;26.00;;;;;;;-128.00;-1.00;-1.00;101062;1304;1004740;-32
2023/01/07 12:31:18;;;;;;;12.30;4.90;;;;;;;-128.00;-1.00;-1.00;100988;1304;1003691;-32
2023/01/07 12:34:08;;;;;;;5.90;4.20;;;;;;;-128.00;-1.00;-1.00;100953;1304;1004226;-36
2023/01/07 12:36:38;;;;;;;6.20;3.90;;;;;;;-128.00;-1.00;-1.00;101049;1304;1004540;-32
2023/01/07 12:39:08;;;;;;;7.00;3.80;;;;;;;-128.00;-1.00;-1.00;100998;1304;1003799;-36
2023/01/07 12:41:39;;;;;;;10.70;4.50;;;;;;;-128.00;-1.00;-1.00;101059;1304;1004283;-32
2023/01/07 12:44:11;;;;;;;15.30;4.70;;;;;;;-128.00;-1.00;-1.00;100943;1304;1004957;-32